createdAt,value
2023-03-25T00:02:27.758Z,5.80
2023-03-25T00:04:54.976Z,5.68
2023-03-25T00:07:22.883Z,6.15
2023-03-25T00:09:49.973Z,6.07
2023-03-25T00:12:18.941Z,5.72
2023-03-25T00:14:54.597Z,5.55
2023-03-25T00:17:23.078Z,5.40
2023-03-25T00:19:52.815Z,5.68
2023-03-25T00:22:19.667Z,5.35
2023-03-25T00:24:46.707Z,5.38
2023-03-25T00:27:14.560Z,5.47
2023-03-25T00:29:44.699Z,6.22
2023-03-25T00:32:12.949Z,5.90
2023-03-25T00:34:47.658Z,6.22
2023-03-25T00:37:17.742Z,5.68
2023-03-25T00:39:45.820Z,6.22
2023-03-25T00:42:16.282Z,5.88
2023-03-25T00:44:43.845Z,5.75
2023-03-25T00:47:12.546Z,5.55
2023-03-25T00:49:39.456Z,5.40
2023-03-25T00:52:06.690Z,6.15
2023-03-25T00:54:34.397Z,5.47
2023-03-25T00:57:01.406Z,5.60
2023-03-25T00:59:28.415Z,6.03
2023-03-25T01:01:56.343Z,5.80
2023-03-25T01:04:23.373Z,5.60
2023-03-25T01:06:51.894Z,5.43
2023-03-25T01:09:19.826Z,6.10
2023-03-25T01:11:46.896Z,5.80
2023-03-25T01:14:18.770Z,5.85
2023-03-25T01:16:46.349Z,5.47
2023-03-25T01:19:13.485Z,6.47
2023-03-25T01:21:40.881Z,6.10
2023-03-25T01:24:10.327Z,6.50
2023-03-25T01:26:38.022Z,6.85
2023-03-25T01:29:05.877Z,6.95
2023-03-25T01:31:33.510Z,6.43
2023-03-25T01:34:00.753Z,7.13
2023-03-25T01:36:30.689Z,7.10
2023-03-25T01:38:59.216Z,7.05
2023-03-25T01:41:35.685Z,7.28
2023-03-25T01:44:06.133Z,8.07
2023-03-25T01:46:33.442Z,7.75
2023-03-25T01:49:01.277Z,8.40
2023-03-25T01:51:34.026Z,8.45
2023-03-25T01:54:00.956Z,8.65
2023-03-25T01:56:31.969Z,8.35
2023-03-25T01:59:04.307Z,9.57
2023-03-25T02:01:31.476Z,10.10
2023-03-25T02:04:03.467Z,9.63
2023-03-25T02:06:36.713Z,9.55
2023-03-25T02:09:09.153Z,10.88
2023-03-25T02:11:36.345Z,10.38
2023-03-25T02:14:04.947Z,11.32
2023-03-25T02:17:03.490Z,10.30
2023-03-25T02:19:51.424Z,10.23
2023-03-25T02:22:56.369Z,9.80
2023-03-25T02:25:35.844Z,10.85
2023-03-25T02:28:03.849Z,10.85
2023-03-25T02:30:39.971Z,10.30
2023-03-25T02:33:28.704Z,11.32
2023-03-25T02:36:23.732Z,10.10
2023-03-25T02:39:11.623Z,10.85
2023-03-25T02:42:17.119Z,11.52
2023-03-25T02:44:55.864Z,10.85
2023-03-25T02:47:23.452Z,10.13
2023-03-25T02:49:59.450Z,11.30
2023-03-25T02:52:43.694Z,11.57
2023-03-25T02:55:11.465Z,11.60
2023-03-25T02:57:41.748Z,10.68
2023-03-25T03:00:15.506Z,11.30
2023-03-25T03:02:44.781Z,13.10
2023-03-25T03:05:28.884Z,13.35
2023-03-25T03:08:09.211Z,13.10
2023-03-25T03:10:48.876Z,13.13
2023-03-25T03:13:24.520Z,14.02
2023-03-25T03:16:24.980Z,12.82
2023-03-25T03:19:02.349Z,13.13
2023-03-25T03:21:41.730Z,14.75
2023-03-25T03:24:27.103Z,13.85
2023-03-25T03:27:04.227Z,14.57
2023-03-25T03:29:39.901Z,15.23
2023-03-25T03:32:21.074Z,15.10
2023-03-25T03:35:20.428Z,14.25
2023-03-25T03:37:58.239Z,15.27
2023-03-25T03:40:25.346Z,14.63
2023-03-25T03:43:16.797Z,14.75
2023-03-25T03:45:46.522Z,15.05
2023-03-25T03:48:22.246Z,15.18
2023-03-25T03:51:31.948Z,14.68
2023-03-25T03:54:00.858Z,14.82
2023-03-25T03:57:08.568Z,14.55
2023-03-25T04:04:30.474Z,15.60
2023-03-25T04:07:10.680Z,16.70
2023-03-25T04:09:55.269Z,15.07
2023-03-25T04:12:29.284Z,15.32
2023-03-25T04:14:56.257Z,15.55
2023-03-25T04:17:24.271Z,14.50
2023-03-25T04:19:53.679Z,14.25
2023-03-25T04:22:21.936Z,14.43
2023-03-25T04:24:55.049Z,14.27
2023-03-25T04:27:23.229Z,14.68
2023-03-25T04:29:51.974Z,14.20
2023-03-25T04:32:19.104Z,14.35
2023-03-25T04:34:47.094Z,14.23
2023-03-25T04:37:14.208Z,12.35
2023-03-25T04:39:41.710Z,12.13
2023-03-25T04:42:13.821Z,11.55
2023-03-25T04:44:40.774Z,9.60
2023-03-25T04:47:07.796Z,9.90
2023-03-25T04:49:34.661Z,9.30
2023-03-25T04:52:04.337Z,9.63
2023-03-25T04:54:31.533Z,9.75
2023-03-25T04:56:59.167Z,9.98
2023-03-25T04:59:27.212Z,9.82
2023-03-25T05:01:54.208Z,10.00
2023-03-25T05:04:21.674Z,9.90
2023-03-25T05:06:50.623Z,8.77
2023-03-25T05:09:19.640Z,10.15
2023-03-25T05:11:46.666Z,10.60
2023-03-25T05:14:14.746Z,9.93
2023-03-25T05:16:41.784Z,9.90
2023-03-25T05:19:08.784Z,10.27
2023-03-25T05:21:37.600Z,10.77
2023-03-25T05:24:08.394Z,10.23
2023-03-25T05:26:35.540Z,11.50
2023-03-25T05:29:06.490Z,11.13
2023-03-25T05:31:33.514Z,12.63
2023-03-25T05:34:00.463Z,12.40
2023-03-25T05:36:27.523Z,12.15
2023-03-25T05:38:54.785Z,11.75
2023-03-25T05:41:22.877Z,12.43
2023-03-25T05:43:50.803Z,11.82
2023-03-25T05:46:19.111Z,10.48
2023-03-25T05:48:46.155Z,12.10
2023-03-25T05:51:16.054Z,11.35
2023-03-25T05:53:44.038Z,12.68
2023-03-25T05:56:12.014Z,11.95
2023-03-25T05:58:39.376Z,13.10
2023-03-25T06:01:09.292Z,11.85
2023-03-25T06:03:42.088Z,11.93
2023-03-25T06:06:14.153Z,11.38
2023-03-25T06:08:41.653Z,11.23
2023-03-25T06:11:14.087Z,11.77
2023-03-25T06:13:41.594Z,11.73
2023-03-25T06:16:09.746Z,11.00
2023-03-25T06:18:37.617Z,12.10
2023-03-25T06:21:04.934Z,11.63
2023-03-25T06:23:35.469Z,11.20
2023-03-25T06:26:04.384Z,11.95
2023-03-25T06:28:33.660Z,11.82
2023-03-25T06:31:07.365Z,11.85
2023-03-25T06:33:42.516Z,11.82
2023-03-25T06:36:11.986Z,12.73
2023-03-25T06:38:39.701Z,10.88
2023-03-25T06:41:10.254Z,12.50
2023-03-25T06:43:38.450Z,11.70
2023-03-25T06:46:28.183Z,11.13
2023-03-25T06:49:11.122Z,10.95
2023-03-25T06:51:38.124Z,10.95
2023-03-25T06:54:05.424Z,12.20
2023-03-25T06:56:32.490Z,10.95
2023-03-25T06:58:59.573Z,11.45
2023-03-25T07:01:26.543Z,11.02
2023-03-25T07:03:54.554Z,11.07
2023-03-25T07:06:23.786Z,11.02
2023-03-25T07:08:50.817Z,10.63
2023-03-25T07:11:21.537Z,10.40
2023-03-25T07:13:48.565Z,10.63
2023-03-25T07:16:15.734Z,10.65
2023-03-25T07:18:42.725Z,10.75
2023-03-25T07:21:09.666Z,10.45
2023-03-25T07:23:36.663Z,10.23
2023-03-25T07:26:03.535Z,10.25
2023-03-25T07:28:30.557Z,9.95
2023-03-25T07:30:57.574Z,9.73
2023-03-25T07:33:24.617Z,9.40
2023-03-25T07:35:51.642Z,9.82
2023-03-25T07:38:18.752Z,10.13
2023-03-25T07:40:50.233Z,9.60
2023-03-25T07:43:17.420Z,9.68
2023-03-25T07:48:22.838Z,9.05
2023-03-25T07:50:51.389Z,9.27
2023-03-25T07:53:18.524Z,9.15
2023-03-25T07:55:45.862Z,9.65
2023-03-25T07:58:13.105Z,9.13
2023-03-25T08:00:40.101Z,9.70
2023-03-25T08:03:07.295Z,10.07
2023-03-25T08:05:34.401Z,10.02
2023-03-25T08:08:01.481Z,10.68
2023-03-25T08:10:28.543Z,10.73
2023-03-25T08:12:55.520Z,9.82
2023-03-25T08:15:24.834Z,11.00
2023-03-25T08:17:52.440Z,11.10
2023-03-25T08:20:19.676Z,10.43
2023-03-25T08:22:46.611Z,10.07
2023-03-25T08:25:14.530Z,10.60
2023-03-25T08:27:41.517Z,9.80
2023-03-25T08:30:10.279Z,10.15
2023-03-25T08:32:38.535Z,9.73
2023-03-25T08:35:06.394Z,9.98
2023-03-25T08:37:37.877Z,10.88
2023-03-25T08:40:11.741Z,9.60
2023-03-25T08:42:39.102Z,10.32
2023-03-25T08:45:07.304Z,9.90
2023-03-25T08:47:34.307Z,10.73
2023-03-25T08:50:01.341Z,10.68
2023-03-25T08:52:28.812Z,10.93
2023-03-25T08:54:55.707Z,10.93
2023-03-25T08:57:22.619Z,11.82
2023-03-25T08:59:50.422Z,11.75
2023-03-25T09:02:18.384Z,10.88
2023-03-25T09:04:48.493Z,11.60
2023-03-25T09:07:15.926Z,11.63
2023-03-25T09:09:43.015Z,11.38
2023-03-25T09:12:11.458Z,12.88
2023-03-25T09:14:38.522Z,11.93
2023-03-25T09:17:06.382Z,11.88
2023-03-25T09:19:38.120Z,12.25
2023-03-25T09:22:05.736Z,12.23
2023-03-25T09:24:34.264Z,12.80
2023-03-25T09:27:02.409Z,12.95
2023-03-25T09:29:29.780Z,12.57
2023-03-25T09:31:58.392Z,12.52
2023-03-25T09:34:25.941Z,12.50
2023-03-25T09:36:53.051Z,13.75
2023-03-25T09:39:20.136Z,12.80
2023-03-25T09:41:54.335Z,12.38
2023-03-25T09:44:25.441Z,12.90
2023-03-25T09:46:52.413Z,13.65
2023-03-25T09:49:22.569Z,13.35
2023-03-25T09:51:50.407Z,13.18
2023-03-25T09:54:25.500Z,14.30
2023-03-25T09:56:53.445Z,13.35
2023-03-25T09:59:23.295Z,13.73
2023-03-25T10:01:55.990Z,13.70
2023-03-25T10:04:46.756Z,14.25
2023-03-25T10:07:50.575Z,13.73
2023-03-25T10:10:42.566Z,14.40
2023-03-25T10:13:14.886Z,14.15
2023-03-25T10:15:59.362Z,13.70
2023-03-25T10:18:34.099Z,15.30
2023-03-25T10:21:12.251Z,14.77
2023-03-25T10:23:51.708Z,14.65
2023-03-25T10:26:24.501Z,13.50
2023-03-25T10:28:59.781Z,14.18
2023-03-25T10:31:27.081Z,14.27
2023-03-25T10:33:56.254Z,15.85
2023-03-25T10:36:39.905Z,14.25
2023-03-25T10:39:15.098Z,14.55
2023-03-25T10:41:43.531Z,15.43
2023-03-25T10:44:10.962Z,13.95
2023-03-25T10:46:47.398Z,14.00
2023-03-25T10:49:18.746Z,15.00
2023-03-25T10:51:45.803Z,15.18
2023-03-25T10:54:12.959Z,13.65
2023-03-25T10:56:48.240Z,14.35
2023-03-25T10:59:20.088Z,14.52
2023-03-25T11:01:47.075Z,14.07
2023-03-25T11:04:17.172Z,14.35
2023-03-25T11:06:55.498Z,14.88
2023-03-25T11:09:28.176Z,14.20
2023-03-25T11:11:55.155Z,15.02
2023-03-25T11:14:26.306Z,15.10
2023-03-25T11:17:15.403Z,13.60
2023-03-25T11:19:44.320Z,14.85
2023-03-25T11:22:24.245Z,13.95
2023-03-25T11:24:54.765Z,14.45
2023-03-25T11:27:24.205Z,13.55
2023-03-25T11:29:56.347Z,14.95
2023-03-25T11:32:25.095Z,13.95
2023-03-25T11:34:52.528Z,14.70
2023-03-25T11:37:24.409Z,14.55
2023-03-25T11:39:55.498Z,14.25
2023-03-25T11:42:25.551Z,14.70
2023-03-25T11:44:53.119Z,14.60
2023-03-25T11:47:35.120Z,14.50
2023-03-25T11:50:02.367Z,14.25
2023-03-25T11:52:46.931Z,14.45
2023-03-25T11:55:23.939Z,13.45
2023-03-25T11:57:51.256Z,13.70
2023-03-25T12:00:37.286Z,13.52
2023-03-25T12:03:30.596Z,14.43
2023-03-25T12:06:16.751Z,13.02
2023-03-25T12:08:46.360Z,13.48
2023-03-25T12:11:21.827Z,13.27
2023-03-25T12:13:51.965Z,12.98
2023-03-25T12:16:40.731Z,12.45
2023-03-25T12:19:10.450Z,13.40
2023-03-25T12:21:37.284Z,13.95
2023-03-25T12:24:16.573Z,13.63
2023-03-25T12:27:08.452Z,15.75
2023-03-25T12:29:43.152Z,15.43
2023-03-25T12:32:38.498Z,15.93
2023-03-25T12:35:17.592Z,15.52
2023-03-25T12:38:04.859Z,15.80
2023-03-25T12:40:59.771Z,16.92
2023-03-25T12:43:35.206Z,16.30
2023-03-25T12:46:30.366Z,15.00
2023-03-25T12:49:34.060Z,15.60
2023-03-25T12:52:41.537Z,16.02
2023-03-25T12:55:39.927Z,15.32
2023-03-25T12:58:27.727Z,13.98
2023-03-25T13:01:10.867Z,14.50
2023-03-25T13:03:50.040Z,14.95
2023-03-25T13:06:18.727Z,14.15
2023-03-25T13:09:11.408Z,13.45
2023-03-25T13:11:59.747Z,14.07
2023-03-25T13:14:30.326Z,12.77
2023-03-25T13:17:00.164Z,13.20
2023-03-25T13:19:27.939Z,12.80
2023-03-25T13:22:03.826Z,13.30
2023-03-25T13:24:53.719Z,12.98
2023-03-25T13:27:20.705Z,11.65
2023-03-25T13:29:53.079Z,12.27
2023-03-25T13:32:37.203Z,11.15
2023-03-25T13:35:07.880Z,12.00
2023-03-25T13:37:39.201Z,12.55
2023-03-25T13:40:28.319Z,11.88
2023-03-25T13:43:04.866Z,10.85
2023-03-25T13:45:43.302Z,11.35
2023-03-25T13:48:35.163Z,11.13
2023-03-25T13:51:03.736Z,11.25
2023-03-25T13:53:33.570Z,10.73
2023-03-25T13:56:06.663Z,10.80
2023-03-25T13:59:01.610Z,11.10
2023-03-25T14:01:56.437Z,11.38
2023-03-25T14:04:48.206Z,9.82
2023-03-25T14:07:27.438Z,10.75
2023-03-25T14:10:25.705Z,10.57
2023-03-25T14:12:59.990Z,10.63
2023-03-25T14:15:30.245Z,10.77
2023-03-25T14:17:57.557Z,11.30
2023-03-25T14:20:35.108Z,10.63
2023-03-25T14:23:04.467Z,10.77
2023-03-25T14:25:48.653Z,11.93
2023-03-25T14:28:39.953Z,10.50
2023-03-25T14:31:09.030Z,10.82
2023-03-25T14:34:07.734Z,10.88
2023-03-25T14:36:40.890Z,11.40
2023-03-25T14:39:30.885Z,10.93
2023-03-25T14:42:05.830Z,12.07
2023-03-25T14:44:41.096Z,12.05
2023-03-25T14:47:16.117Z,11.88
2023-03-25T14:50:01.744Z,11.68
2023-03-25T14:52:45.801Z,11.40
2023-03-25T14:55:26.419Z,10.52
2023-03-25T14:57:59.069Z,11.65
2023-03-25T15:00:29.879Z,12.02
2023-03-25T15:03:14.356Z,12.23
2023-03-25T15:05:41.459Z,11.70
2023-03-25T15:08:16.841Z,11.20
2023-03-25T15:10:46.051Z,12.13
2023-03-25T15:13:22.077Z,11.32
2023-03-25T15:18:35.655Z,10.90
2023-03-25T15:21:08.762Z,10.40
2023-03-25T15:23:47.600Z,11.18
2023-03-25T15:26:31.144Z,12.00
2023-03-25T15:29:16.471Z,11.50
2023-03-25T15:32:01.548Z,12.85
2023-03-25T15:35:06.240Z,12.55
2023-03-25T15:37:52.720Z,11.02
2023-03-25T15:43:20.756Z,12.13
2023-03-25T15:46:07.015Z,10.18
2023-03-25T15:49:01.737Z,10.85
2023-03-25T15:52:02.511Z,11.45
2023-03-25T15:54:45.447Z,10.90
2023-03-25T15:57:34.664Z,10.13
2023-03-25T16:00:18.463Z,9.90
2023-03-25T16:02:51.611Z,10.18
2023-03-25T16:05:18.893Z,9.25
2023-03-25T16:07:46.525Z,10.57
2023-03-25T16:10:16.693Z,11.95
2023-03-25T16:12:46.331Z,9.90
2023-03-25T16:15:17.680Z,11.15
2023-03-25T16:17:45.023Z,9.02
2023-03-25T16:20:18.342Z,10.43
2023-03-25T16:22:50.040Z,9.90
2023-03-25T16:25:22.105Z,9.77
2023-03-25T16:27:54.798Z,11.10
2023-03-25T16:30:38.943Z,12.07
2023-03-25T16:33:10.457Z,12.82
2023-03-25T16:35:39.747Z,12.82
2023-03-25T16:38:06.776Z,14.10
2023-03-25T16:40:40.241Z,13.70
2023-03-25T16:43:23.884Z,13.10
2023-03-25T16:45:52.058Z,12.23
2023-03-25T16:48:22.777Z,11.52
2023-03-25T16:50:51.340Z,11.88
2023-03-25T16:53:18.598Z,9.88
2023-03-25T16:55:47.350Z,11.13
2023-03-25T16:58:23.452Z,10.55
2023-03-25T17:03:37.841Z,11.25
2023-03-25T17:06:13.265Z,10.90
2023-03-25T17:08:40.245Z,9.35
2023-03-25T17:11:08.300Z,9.50
2023-03-25T17:13:43.766Z,10.55
2023-03-25T17:16:10.773Z,10.48
2023-03-25T17:18:39.208Z,9.40
2023-03-25T17:21:11.689Z,7.85
2023-03-25T17:23:41.774Z,10.32
2023-03-25T17:26:12.905Z,10.50
2023-03-25T17:28:49.329Z,10.30
2023-03-25T17:31:36.442Z,8.82
2023-03-25T17:34:37.326Z,11.25
2023-03-25T17:37:04.199Z,10.18
2023-03-25T17:39:32.263Z,10.73
2023-03-25T17:42:06.816Z,10.63
2023-03-25T17:44:41.465Z,9.93
2023-03-25T17:47:10.802Z,9.82
2023-03-25T17:49:37.866Z,9.43
2023-03-25T17:52:04.958Z,9.35
2023-03-25T17:54:35.974Z,9.20
2023-03-25T17:57:04.064Z,9.27
2023-03-25T17:59:31.100Z,9.50
2023-03-25T18:01:58.631Z,8.68
2023-03-25T18:04:25.739Z,10.48
2023-03-25T18:06:52.948Z,10.15
2023-03-25T18:09:22.154Z,10.75
2023-03-25T18:11:53.785Z,9.45
2023-03-25T18:14:21.563Z,9.15
2023-03-25T18:16:48.749Z,9.60
2023-03-25T18:19:18.096Z,9.93
2023-03-25T18:21:45.634Z,10.55
2023-03-25T18:24:16.093Z,11.05
2023-03-25T18:26:43.789Z,11.38
2023-03-25T18:29:18.232Z,10.18
2023-03-25T18:31:45.467Z,9.77
2023-03-25T18:34:13.162Z,10.38
2023-03-25T18:36:41.138Z,10.40
2023-03-25T18:39:15.516Z,9.38
2023-03-25T18:41:42.600Z,9.02
2023-03-25T18:44:09.976Z,9.13
2023-03-25T18:46:41.697Z,7.80
2023-03-25T18:49:13.852Z,8.73
2023-03-25T18:51:40.935Z,8.35
2023-03-25T18:54:07.861Z,8.80
2023-03-25T18:56:34.912Z,9.55
2023-03-25T18:59:01.973Z,10.88
2023-03-25T19:01:29.199Z,11.52
2023-03-25T19:04:02.330Z,11.70
2023-03-25T19:06:29.994Z,11.07
2023-03-25T19:08:57.492Z,12.13
2023-03-25T19:11:24.790Z,10.80
2023-03-25T19:13:51.837Z,10.35
2023-03-25T19:16:19.099Z,9.43
2023-03-25T19:18:47.712Z,8.70
2023-03-25T19:21:19.027Z,10.20
2023-03-25T19:23:46.554Z,8.93
2023-03-25T19:26:13.529Z,7.70
2023-03-25T19:28:41.319Z,7.47
2023-03-25T19:31:08.326Z,8.68
2023-03-25T19:33:35.357Z,8.20
2023-03-25T19:36:04.546Z,8.27
2023-03-25T19:38:33.082Z,8.45
2023-03-25T19:41:08.290Z,9.10
2023-03-25T19:43:35.944Z,7.63
2023-03-25T19:46:03.026Z,9.05
2023-03-25T19:48:30.173Z,8.40
2023-03-25T19:50:57.530Z,9.52
2023-03-25T19:53:24.930Z,9.95
2023-03-25T19:55:52.258Z,11.70
2023-03-25T19:58:20.503Z,11.13
2023-03-25T20:00:47.788Z,10.23
2023-03-25T20:03:14.823Z,10.05
2023-03-25T20:05:42.077Z,11.50
2023-03-25T20:08:09.608Z,10.52
2023-03-25T20:10:37.932Z,10.07
2023-03-25T20:13:04.886Z,13.55
2023-03-25T20:15:32.381Z,13.57
2023-03-25T20:17:59.448Z,16.92
2023-03-25T20:20:26.534Z,13.38
2023-03-25T20:22:53.604Z,13.27
2023-03-25T20:25:20.601Z,13.32
2023-03-25T20:27:47.669Z,12.50
2023-03-25T20:30:17.011Z,12.40
2023-03-25T20:32:45.731Z,22.08
2023-03-25T20:35:15.027Z,11.20
2023-03-25T20:37:42.678Z,9.35
2023-03-25T20:40:11.904Z,10.07
2023-03-25T20:42:42.828Z,10.77
2023-03-25T20:45:11.420Z,8.10
2023-03-25T20:47:38.572Z,8.10
2023-03-25T20:50:06.507Z,7.30
2023-03-25T20:52:34.337Z,7.93
2023-03-25T20:55:01.432Z,9.73
2023-03-25T20:57:29.703Z,11.75
2023-03-25T20:59:56.874Z,11.90
2023-03-25T21:02:24.580Z,11.55
2023-03-25T21:04:55.292Z,18.15
2023-03-25T21:07:22.391Z,10.30
2023-03-25T21:09:49.964Z,11.98
2023-03-25T21:12:17.236Z,12.35
2023-03-25T21:14:44.368Z,10.82
2023-03-25T21:17:11.567Z,9.88
2023-03-25T21:19:38.548Z,9.60
2023-03-25T21:22:05.596Z,8.07
2023-03-25T21:24:35.775Z,7.20
2023-03-25T21:27:03.097Z,7.35
2023-03-25T21:29:30.108Z,6.38
2023-03-25T21:31:57.826Z,9.55
2023-03-25T21:34:25.193Z,7.65
2023-03-25T21:36:52.155Z,6.40
2023-03-25T21:39:19.071Z,6.78
2023-03-25T21:41:46.292Z,6.13
2023-03-25T21:44:15.959Z,5.30
2023-03-25T21:46:43.420Z,5.35
2023-03-25T21:49:11.677Z,5.70
2023-03-25T21:51:42.661Z,4.68
2023-03-25T21:54:10.726Z,6.32
2023-03-25T21:56:40.150Z,6.55
2023-03-25T21:59:07.244Z,5.85
2023-03-25T22:01:35.886Z,6.47
2023-03-25T22:04:03.791Z,5.95
2023-03-25T22:06:31.813Z,6.30
2023-03-25T22:08:59.173Z,5.43
2023-03-25T22:11:29.650Z,4.82
2023-03-25T22:13:56.808Z,5.18
2023-03-25T22:16:23.880Z,4.80
2023-03-25T22:18:50.948Z,4.53
2023-03-25T22:21:26.327Z,7.20
2023-03-25T22:23:54.401Z,4.90
2023-03-25T22:26:21.901Z,4.30
2023-03-25T22:28:51.201Z,4.25
2023-03-25T22:31:19.295Z,5.57
2023-03-25T22:33:46.547Z,9.07
2023-03-25T22:36:14.832Z,3.83
2023-03-25T22:38:46.286Z,5.10
2023-03-25T22:41:14.611Z,6.60
2023-03-25T22:43:41.738Z,3.85
2023-03-25T22:46:09.053Z,10.48
2023-03-25T22:48:39.155Z,4.93
2023-03-25T22:51:10.911Z,14.23
2023-03-25T22:53:37.813Z,22.85
2023-03-25T22:56:05.270Z,11.85
2023-03-25T22:58:32.414Z,12.68
2023-03-25T23:01:00.382Z,11.10
2023-03-25T23:03:27.814Z,9.32
2023-03-25T23:05:58.653Z,8.63
2023-03-25T23:08:30.034Z,6.25
2023-03-25T23:11:11.488Z,6.82
2023-03-25T23:13:39.393Z,6.25
2023-03-25T23:16:11.140Z,6.32
2023-03-25T23:18:39.307Z,6.05
2023-03-25T23:21:06.925Z,5.35
2023-03-25T23:23:34.058Z,5.47
2023-03-25T23:26:14.788Z,5.55
2023-03-25T23:28:44.423Z,7.90
2023-03-25T23:31:14.946Z,7.60
2023-03-25T23:33:42.404Z,7.88
2023-03-25T23:36:09.967Z,6.45
2023-03-25T23:38:37.082Z,8.68
2023-03-25T23:41:11.465Z,15.35
2023-03-25T23:43:38.519Z,9.55
2023-03-25T23:46:06.402Z,13.88
2023-03-25T23:48:33.743Z,11.07
2023-03-25T23:51:00.797Z,11.88
2023-03-25T23:53:27.740Z,12.25
2023-03-25T23:55:55.596Z,8.20
2023-03-25T23:58:25.244Z,12.70
